Terminal Aerodrome Forecast
Issued by NWS

Home | Current Version | Previous Version | Text Only | Print | Product List | Glossary On
Versions: 1 2 3 4 5 6 7 8 9 10 11 12 13
000
FTUS45 KABQ 131700
TAFLVS
TAF
KLVS 131735Z 1318/1418 VRB05KT P6SM FEW060 BKN120
     FM132000 11007KT P6SM VCSH SCT050 BKN100
      TEMPO 1322/1402 VRB15G25KT -TSRA BKN050CB
     FM140200 08008KT P6SM VCSH SCT040 OVC100
     FM140600 VRB06KT P6SM BKN100=

USA.gov is the U.S. government's official web portal to all federal, state and local government web resources and services.